sensor_id;sensor_type;location;lat;lon;timestamp;temperature;humidity
23669;DHT22;12011;47.422;15.018;2024-01-10T00:00:50;-1.70;96.70
23669;DHT22;12011;47.422;15.018;2024-01-10T00:03:26;-1.70;97.00
23669;DHT22;12011;47.422;15.018;2024-01-10T00:06:23;-1.20;97.00
23669;DHT22;12011;47.422;15.018;2024-01-10T00:09:06;-1.80;96.20
23669;DHT22;12011;47.422;15.018;2024-01-10T00:11:39;-1.80;94.20
23669;DHT22;12011;47.422;15.018;2024-01-10T00:14:25;-1.80;95.40
23669;DHT22;12011;47.422;15.018;2024-01-10T00:17:07;-1.80;94.80
23669;DHT22;12011;47.422;15.018;2024-01-10T00:19:46;-0.70;95.70
23669;DHT22;12011;47.422;15.018;2024-01-10T00:22:43;-1.80;95.10
23669;DHT22;12011;47.422;15.018;2024-01-10T00:25:30;-1.80;94.60
23669;DHT22;12011;47.422;15.018;2024-01-10T00:28:04;-1.70;94.60
23669;DHT22;12011;47.422;15.018;2024-01-10T00:30:40;-1.80;95.20
23669;DHT22;12011;47.422;15.018;2024-01-10T00:33:20;-1.10;94.70
23669;DHT22;12011;47.422;15.018;2024-01-10T00:36:10;-1.20;95.60
23669;DHT22;12011;47.422;15.018;2024-01-10T00:39:00;-1.80;94.70
23669;DHT22;12011;47.422;15.018;2024-01-10T00:41:33;-1.80;94.30
23669;DHT22;12011;47.422;15.018;2024-01-10T00:44:18;-1.40;94.10
23669;DHT22;12011;47.422;15.018;2024-01-10T00:46:53;-1.10;94.20
23669;DHT22;12011;47.422;15.018;2024-01-10T00:49:29;-1.80;94.10
23669;DHT22;12011;47.422;15.018;2024-01-10T00:52:14;-1.80;94.30
23669;DHT22;12011;47.422;15.018;2024-01-10T00:54:57;-1.80;94.20
23669;DHT22;12011;47.422;15.018;2024-01-10T00:57:32;-1.20;94.30
23669;DHT22;12011;47.422;15.018;2024-01-10T01:00:32;-1.90;93.70
23669;DHT22;12011;47.422;15.018;2024-01-10T01:03:08;-1.80;93.20
23669;DHT22;12011;47.422;15.018;2024-01-10T01:05:46;-1.80;95.00
23669;DHT22;12011;47.422;15.018;2024-01-10T01:08:22;-1.90;93.60
23669;DHT22;12011;47.422;15.018;2024-01-10T01:11:19;-1.30;93.70
23669;DHT22;12011;47.422;15.018;2024-01-10T01:16:50;-1.90;93.70
23669;DHT22;12011;47.422;15.018;2024-01-10T01:19:30;-1.90;94.20
23669;DHT22;12011;47.422;15.018;2024-01-10T01:22:05;-1.90;94.60
23669;DHT22;12011;47.422;15.018;2024-01-10T01:24:40;-1.90;92.50
23669;DHT22;12011;47.422;15.018;2024-01-10T01:27:25;-1.00;93.20
23669;DHT22;12011;47.422;15.018;2024-01-10T01:30:01;-1.30;92.70
23669;DHT22;12011;47.422;15.018;2024-01-10T01:32:39;-2.10;92.40
23669;DHT22;12011;47.422;15.018;2024-01-10T01:35:18;-2.10;93.00
23669;DHT22;12011;47.422;15.018;2024-01-10T01:38:02;-1.30;93.10
23669;DHT22;12011;47.422;15.018;2024-01-10T01:40:45;-2.10;91.90
23669;DHT22;12011;47.422;15.018;2024-01-10T01:46:32;-2.10;93.10
23669;DHT22;12011;47.422;15.018;2024-01-10T01:49:14;-2.10;92.70
23669;DHT22;12011;47.422;15.018;2024-01-10T01:51:51;-1.80;92.00
23669;DHT22;12011;47.422;15.018;2024-01-10T01:54:42;-2.10;92.90
23669;DHT22;12011;47.422;15.018;2024-01-10T01:57:17;-1.70;92.80
23669;DHT22;12011;47.422;15.018;2024-01-10T02:00:03;-2.20;92.40
23669;DHT22;12011;47.422;15.018;2024-01-10T02:02:37;-2.20;91.70
23669;DHT22;12011;47.422;15.018;2024-01-10T02:05:22;-2.20;92.10
23669;DHT22;12011;47.422;15.018;2024-01-10T02:08:00;-1.00;91.90
23669;DHT22;12011;47.422;15.018;2024-01-10T02:10:37;-2.30;92.30
23669;DHT22;12011;47.422;15.018;2024-01-10T02:13:24;-1.80;91.90
23669;DHT22;12011;47.422;15.018;2024-01-10T02:16:15;-2.30;91.70
23669;DHT22;12011;47.422;15.018;2024-01-10T02:19:01;-2.50;91.50
23669;DHT22;12011;47.422;15.018;2024-01-10T02:21:40;-2.40;91.40
23669;DHT22;12011;47.422;15.018;2024-01-10T02:24:14;-2.40;91.20
23669;DHT22;12011;47.422;15.018;2024-01-10T02:26:59;-1.40;91.90
23669;DHT22;12011;47.422;15.018;2024-01-10T02:29:51;-2.40;91.40
23669;DHT22;12011;47.422;15.018;2024-01-10T02:32:29;-3.20;91.30
23669;DHT22;12011;47.422;15.018;2024-01-10T02:35:07;-2.40;91.40
23669;DHT22;12011;47.422;15.018;2024-01-10T02:37:41;-2.40;91.40
23669;DHT22;12011;47.422;15.018;2024-01-10T02:40:26;-1.50;91.80
23669;DHT22;12011;47.422;15.018;2024-01-10T02:43:10;-2.40;91.80
23669;DHT22;12011;47.422;15.018;2024-01-10T02:48:26;-2.40;92.10
23669;DHT22;12011;47.422;15.018;2024-01-10T02:51:19;-1.80;92.10
23669;DHT22;12011;47.422;15.018;2024-01-10T02:53:53;-1.90;91.70
23669;DHT22;12011;47.422;15.018;2024-01-10T02:56:30;-2.40;92.00
23669;DHT22;12011;47.422;15.018;2024-01-10T02:59:13;-1.40;92.60
23669;DHT22;12011;47.422;15.018;2024-01-10T03:01:47;-2.50;92.50
23669;DHT22;12011;47.422;15.018;2024-01-10T03:04:27;-2.50;91.80
23669;DHT22;12011;47.422;15.018;2024-01-10T03:07:15;-2.50;92.00
23669;DHT22;12011;47.422;15.018;2024-01-10T03:09:57;-2.50;92.40
23669;DHT22;12011;47.422;15.018;2024-01-10T03:12:36;-1.60;92.60
23669;DHT22;12011;47.422;15.018;2024-01-10T03:15:16;-2.60;91.80
23669;DHT22;12011;47.422;15.018;2024-01-10T03:18:05;-2.60;93.10
23669;DHT22;12011;47.422;15.018;2024-01-10T03:20:42;-2.60;91.90
23669;DHT22;12011;47.422;15.018;2024-01-10T03:23:21;-2.60;91.80
23669;DHT22;12011;47.422;15.018;2024-01-10T03:26:05;-2.30;92.40
23669;DHT22;12011;47.422;15.018;2024-01-10T03:28:46;-2.60;92.10
23669;DHT22;12011;47.422;15.018;2024-01-10T03:31:47;-2.00;92.40
23669;DHT22;12011;47.422;15.018;2024-01-10T03:34:26;-2.30;92.30
23669;DHT22;12011;47.422;15.018;2024-01-10T03:37:00;-2.80;92.00
23669;DHT22;12011;47.422;15.018;2024-01-10T03:39:43;-2.80;92.90
23669;DHT22;12011;47.422;15.018;2024-01-10T03:42:18;-1.60;92.80
23669;DHT22;12011;47.422;15.018;2024-01-10T03:44:59;-2.90;92.10
23669;DHT22;12011;47.422;15.018;2024-01-10T03:47:41;-3.00;92.90
23669;DHT22;12011;47.422;15.018;2024-01-10T03:50:19;-3.10;92.60
23669;DHT22;12011;47.422;15.018;2024-01-10T03:52:52;-2.80;92.70
23669;DHT22;12011;47.422;15.018;2024-01-10T03:55:28;-2.20;92.80
23669;DHT22;12011;47.422;15.018;2024-01-10T03:58:05;-2.40;92.60
23669;DHT22;12011;47.422;15.018;2024-01-10T04:00:39;-3.40;92.40
23669;DHT22;12011;47.422;15.018;2024-01-10T04:03:19;-3.40;92.50
23669;DHT22;12011;47.422;15.018;2024-01-10T04:06:07;-3.50;92.70
23669;DHT22;12011;47.422;15.018;2024-01-10T04:08:44;-3.60;93.20
23669;DHT22;12011;47.422;15.018;2024-01-10T04:11:22;-3.70;93.20
23669;DHT22;12011;47.422;15.018;2024-01-10T04:14:02;-3.80;93.40
23669;DHT22;12011;47.422;15.018;2024-01-10T04:16:40;-5.00;93.60
23669;DHT22;12011;47.422;15.018;2024-01-10T04:19:37;-3.90;93.70
23669;DHT22;12011;47.422;15.018;2024-01-10T04:22:12;-4.10;94.60
23669;DHT22;12011;47.422;15.018;2024-01-10T04:25:07;-4.30;95.10
23669;DHT22;12011;47.422;15.018;2024-01-10T04:27:38;-4.40;95.30
23669;DHT22;12011;47.422;15.018;2024-01-10T04:30:14;-4.40;94.80
23669;DHT22;12011;47.422;15.018;2024-01-10T04:32:53;-4.50;94.90
23669;DHT22;12011;47.422;15.018;2024-01-10T04:35:28;-4.50;95.40
23669;DHT22;12011;47.422;15.018;2024-01-10T04:38:02;-3.60;95.90
23669;DHT22;12011;47.422;15.018;2024-01-10T04:40:33;-4.60;95.90
23669;DHT22;12011;47.422;15.018;2024-01-10T04:43:03;-4.70;96.20
23669;DHT22;12011;47.422;15.018;2024-01-10T04:45:40;-4.70;96.50
23669;DHT22;12011;47.422;15.018;2024-01-10T04:48:14;-4.50;96.30
23669;DHT22;12011;47.422;15.018;2024-01-10T04:50:48;-4.90;96.10
23669;DHT22;12011;47.422;15.018;2024-01-10T04:53:19;-4.90;96.30
23669;DHT22;12011;47.422;15.018;2024-01-10T04:55:49;-5.20;97.90
23669;DHT22;12011;47.422;15.018;2024-01-10T04:58:22;-5.40;97.70
23669;DHT22;12011;47.422;15.018;2024-01-10T05:00:56;-5.50;98.90
23669;DHT22;12011;47.422;15.018;2024-01-10T05:03:25;-5.60;99.80
23669;DHT22;12011;47.422;15.018;2024-01-10T05:05:58;-5.60;99.90
23669;DHT22;12011;47.422;15.018;2024-01-10T05:08:33;-5.60;99.90
23669;DHT22;12011;47.422;15.018;2024-01-10T05:11:04;-5.60;99.90
23669;DHT22;12011;47.422;15.018;2024-01-10T05:13:42;-5.60;99.90
23669;DHT22;12011;47.422;15.018;2024-01-10T05:16:12;-5.70;99.90
23669;DHT22;12011;47.422;15.018;2024-01-10T05:18:51;-5.80;99.90
23669;DHT22;12011;47.422;15.018;2024-01-10T05:21:24;-5.80;99.90
23669;DHT22;12011;47.422;15.018;2024-01-10T05:24:00;-5.70;99.90
23669;DHT22;12011;47.422;15.018;2024-01-10T05:26:40;-4.50;99.90
23669;DHT22;12011;47.422;15.018;2024-01-10T05:29:10;-5.60;99.90
23669;DHT22;12011;47.422;15.018;2024-01-10T05:31:44;-5.70;99.90
23669;DHT22;12011;47.422;15.018;2024-01-10T05:34:18;-5.70;99.90
23669;DHT22;12011;47.422;15.018;2024-01-10T05:36:56;-5.80;99.90
23669;DHT22;12011;47.422;15.018;2024-01-10T05:39:28;-5.80;99.90
23669;DHT22;12011;47.422;15.018;2024-01-10T05:42:02;-5.80;99.90
23669;DHT22;12011;47.422;15.018;2024-01-10T05:44:38;-5.90;99.90
23669;DHT22;12011;47.422;15.018;2024-01-10T05:47:13;-6.00;99.90
23669;DHT22;12011;47.422;15.018;2024-01-10T05:50:11;-5.30;99.90
23669;DHT22;12011;47.422;15.018;2024-01-10T05:53:02;-6.20;99.90
23669;DHT22;12011;47.422;15.018;2024-01-10T05:55:49;-6.30;99.90
23669;DHT22;12011;47.422;15.018;2024-01-10T05:58:53;-5.80;99.90
23669;DHT22;12011;47.422;15.018;2024-01-10T06:01:31;-6.30;99.90
23669;DHT22;12011;47.422;15.018;2024-01-10T06:04:14;-6.40;99.90
23669;DHT22;12011;47.422;15.018;2024-01-10T06:06:50;-6.40;99.90
23669;DHT22;12011;47.422;15.018;2024-01-10T06:09:23;-6.50;99.90
23669;DHT22;12011;47.422;15.018;2024-01-10T06:11:58;-6.60;99.90
23669;DHT22;12011;47.422;15.018;2024-01-10T06:14:34;-6.60;99.90
23669;DHT22;12011;47.422;15.018;2024-01-10T06:17:10;-6.50;99.90
23669;DHT22;12011;47.422;15.018;2024-01-10T06:19:46;-6.50;99.90
23669;DHT22;12011;47.422;15.018;2024-01-10T06:22:24;-6.30;99.90
23669;DHT22;12011;47.422;15.018;2024-01-10T06:25:05;-6.30;99.90
23669;DHT22;12011;47.422;15.018;2024-01-10T06:27:45;-6.20;99.90
23669;DHT22;12011;47.422;15.018;2024-01-10T06:30:26;-6.20;99.90
23669;DHT22;12011;47.422;15.018;2024-01-10T06:33:00;-5.80;99.90
23669;DHT22;12011;47.422;15.018;2024-01-10T06:35:39;-6.30;99.90
23669;DHT22;12011;47.422;15.018;2024-01-10T06:38:15;-6.30;99.90
23669;DHT22;12011;47.422;15.018;2024-01-10T06:40:52;-6.30;99.90
23669;DHT22;12011;47.422;15.018;2024-01-10T06:43:22;-6.30;99.90
23669;DHT22;12011;47.422;15.018;2024-01-10T06:45:51;-6.30;99.90
23669;DHT22;12011;47.422;15.018;2024-01-10T06:48:20;-6.40;99.90
23669;DHT22;12011;47.422;15.018;2024-01-10T06:50:50;-6.40;99.90
23669;DHT22;12011;47.422;15.018;2024-01-10T06:53:19;-6.50;99.90
23669;DHT22;12011;47.422;15.018;2024-01-10T06:55:51;-6.50;99.90
23669;DHT22;12011;47.422;15.018;2024-01-10T06:58:21;-6.50;99.90
23669;DHT22;12011;47.422;15.018;2024-01-10T07:00:50;-6.50;99.90
23669;DHT22;12011;47.422;15.018;2024-01-10T07:03:20;-6.50;99.90
23669;DHT22;12011;47.422;15.018;2024-01-10T07:05:49;-6.50;99.90
23669;DHT22;12011;47.422;15.018;2024-01-10T07:08:19;-6.50;99.90
23669;DHT22;12011;47.422;15.018;2024-01-10T07:10:48;-6.50;99.90
23669;DHT22;12011;47.422;15.018;2024-01-10T07:13:20;-6.50;99.90
23669;DHT22;12011;47.422;15.018;2024-01-10T07:15:50;-6.50;99.90
23669;DHT22;12011;47.422;15.018;2024-01-10T07:18:19;-6.40;99.90
23669;DHT22;12011;47.422;15.018;2024-01-10T07:20:49;-6.40;99.90
23669;DHT22;12011;47.422;15.018;2024-01-10T07:23:19;-6.40;99.90
23669;DHT22;12011;47.422;15.018;2024-01-10T07:25:48;-6.30;99.90
23669;DHT22;12011;47.422;15.018;2024-01-10T07:28:21;-6.20;99.90
23669;DHT22;12011;47.422;15.018;2024-01-10T07:30:50;-6.20;99.90
23669;DHT22;12011;47.422;15.018;2024-01-10T07:33:20;-6.20;99.90
23669;DHT22;12011;47.422;15.018;2024-01-10T07:35:49;-6.10;99.90
23669;DHT22;12011;47.422;15.018;2024-01-10T07:38:19;-6.00;99.90
23669;DHT22;12011;47.422;15.018;2024-01-10T07:40:48;-6.00;99.90
23669;DHT22;12011;47.422;15.018;2024-01-10T07:43:20;-5.90;99.90
23669;DHT22;12011;47.422;15.018;2024-01-10T07:45:49;-5.90;99.90
23669;DHT22;12011;47.422;15.018;2024-01-10T07:48:19;-5.60;99.90
23669;DHT22;12011;47.422;15.018;2024-01-10T07:50:49;-3.10;99.90
23669;DHT22;12011;47.422;15.018;2024-01-10T07:53:18;-0.80;99.90
23669;DHT22;12011;47.422;15.018;2024-01-10T07:55:48;1.20;93.00
23669;DHT22;12011;47.422;15.018;2024-01-10T07:58:20;2.50;77.80
23669;DHT22;12011;47.422;15.018;2024-01-10T08:00:49;3.70;68.30
23669;DHT22;12011;47.422;15.018;2024-01-10T08:03:20;4.60;60.90
23669;DHT22;12011;47.422;15.018;2024-01-10T08:05:49;5.30;55.80
23669;DHT22;12011;47.422;15.018;2024-01-10T08:08:19;5.80;53.20
23669;DHT22;12011;47.422;15.018;2024-01-10T09:09:28;8.80;40.50
23669;DHT22;12011;47.422;15.018;2024-01-10T09:11:58;8.40;40.30
23669;DHT22;12011;47.422;15.018;2024-01-10T09:14:27;8.20;41.00
23669;DHT22;12011;47.422;15.018;2024-01-10T09:16:57;7.00;40.60
23669;DHT22;12011;47.422;15.018;2024-01-10T09:19:29;6.70;43.20
23669;DHT22;12011;47.422;15.018;2024-01-10T09:21:58;5.10;46.10
23669;DHT22;12011;47.422;15.018;2024-01-10T09:24:30;3.80;50.30
23669;DHT22;12011;47.422;15.018;2024-01-10T09:27:01;2.60;55.30
23669;DHT22;12011;47.422;15.018;2024-01-10T09:29:31;2.00;60.10
23669;DHT22;12011;47.422;15.018;2024-01-10T09:32:00;1.40;66.60
23669;DHT22;12011;47.422;15.018;2024-01-10T09:34:30;1.00;71.60
23669;DHT22;12011;47.422;15.018;2024-01-10T09:36:59;0.50;76.00
23669;DHT22;12011;47.422;15.018;2024-01-10T09:39:31;0.50;80.60
23669;DHT22;12011;47.422;15.018;2024-01-10T09:42:01;0.40;82.20
23669;DHT22;12011;47.422;15.018;2024-01-10T09:44:30;0.30;84.40
23669;DHT22;12011;47.422;15.018;2024-01-10T09:47:01;0.20;85.00
23669;DHT22;12011;47.422;15.018;2024-01-10T09:49:31;-0.40;85.60
23669;DHT22;12011;47.422;15.018;2024-01-10T09:52:04;0.10;86.10
23669;DHT22;12011;47.422;15.018;2024-01-10T09:54:39;-0.60;86.70
23669;DHT22;12011;47.422;15.018;2024-01-10T09:57:13;-0.60;87.90
23669;DHT22;12011;47.422;15.018;2024-01-10T09:59:42;-0.60;90.90
23669;DHT22;12011;47.422;15.018;2024-01-10T10:02:13;0.00;88.70
23669;DHT22;12011;47.422;15.018;2024-01-10T10:04:54;-0.30;88.50
23669;DHT22;12011;47.422;15.018;2024-01-10T10:07:26;0.10;90.40
23669;DHT22;12011;47.422;15.018;2024-01-10T10:09:58;-0.20;88.20
23669;DHT22;12011;47.422;15.018;2024-01-10T10:12:42;0.00;90.30
23669;DHT22;12011;47.422;15.018;2024-01-10T10:15:14;-0.40;89.80
23669;DHT22;12011;47.422;15.018;2024-01-10T10:17:46;-0.40;87.10
23669;DHT22;12011;47.422;15.018;2024-01-10T10:20:21;0.40;88.60
23669;DHT22;12011;47.422;15.018;2024-01-10T10:22:59;-0.30;88.90
23669;DHT22;12011;47.422;15.018;2024-01-10T10:25:34;-0.30;88.30
23669;DHT22;12011;47.422;15.018;2024-01-10T10:28:05;-0.20;89.50
23669;DHT22;12011;47.422;15.018;2024-01-10T10:30:35;-0.20;89.70
23669;DHT22;12011;47.422;15.018;2024-01-10T10:33:05;-0.20;88.00
23669;DHT22;12011;47.422;15.018;2024-01-10T10:35:35;-0.30;88.60
23669;DHT22;12011;47.422;15.018;2024-01-10T10:38:04;0.00;89.30
23669;DHT22;12011;47.422;15.018;2024-01-10T10:40:38;-0.30;89.50
23669;DHT22;12011;47.422;15.018;2024-01-10T10:43:13;0.00;87.40
23669;DHT22;12011;47.422;15.018;2024-01-10T10:45:48;-0.20;86.40
23669;DHT22;12011;47.422;15.018;2024-01-10T10:48:19;0.40;87.60
23669;DHT22;12011;47.422;15.018;2024-01-10T10:50:59;0.30;85.10
23669;DHT22;12011;47.422;15.018;2024-01-10T10:53:36;0.40;83.50
23669;DHT22;12011;47.422;15.018;2024-01-10T10:56:09;0.60;83.90
23669;DHT22;12011;47.422;15.018;2024-01-10T10:58:41;0.30;82.70
23669;DHT22;12011;47.422;15.018;2024-01-10T11:01:12;0.50;84.40
23669;DHT22;12011;47.422;15.018;2024-01-10T11:03:42;0.20;84.60
23669;DHT22;12011;47.422;15.018;2024-01-10T11:06:13;0.20;82.30
23669;DHT22;12011;47.422;15.018;2024-01-10T11:08:47;0.30;83.10
23669;DHT22;12011;47.422;15.018;2024-01-10T11:11:44;0.30;81.50
23669;DHT22;12011;47.422;15.018;2024-01-10T11:14:33;-0.30;81.30
23669;DHT22;12011;47.422;15.018;2024-01-10T11:17:27;0.40;81.70
23669;DHT22;12011;47.422;15.018;2024-01-10T11:20:23;0.50;83.60
23669;DHT22;12011;47.422;15.018;2024-01-10T11:26:07;0.90;79.60
23669;DHT22;12011;47.422;15.018;2024-01-10T11:28:40;0.90;79.80
23669;DHT22;12011;47.422;15.018;2024-01-10T11:31:10;1.10;76.50
23669;DHT22;12011;47.422;15.018;2024-01-10T11:33:40;1.40;73.40
23669;DHT22;12011;47.422;15.018;2024-01-10T11:36:16;1.70;74.00
23669;DHT22;12011;47.422;15.018;2024-01-10T11:38:54;2.30;70.20
23669;DHT22;12011;47.422;15.018;2024-01-10T11:41:28;2.80;61.70
23669;DHT22;12011;47.422;15.018;2024-01-10T11:47:20;4.50;56.10
23669;DHT22;12011;47.422;15.018;2024-01-10T11:49:57;5.70;51.80
23669;DHT22;12011;47.422;15.018;2024-01-10T11:52:33;5.90;50.10
23669;DHT22;12011;47.422;15.018;2024-01-10T11:55:04;6.50;48.50
23669;DHT22;12011;47.422;15.018;2024-01-10T11:57:34;6.30;46.80
23669;DHT22;12011;47.422;15.018;2024-01-10T12:00:07;6.50;46.30
23669;DHT22;12011;47.422;15.018;2024-01-10T12:02:38;6.60;46.20
23669;DHT22;12011;47.422;15.018;2024-01-10T12:05:09;6.50;47.10
23669;DHT22;12011;47.422;15.018;2024-01-10T12:07:38;6.10;45.70
23669;DHT22;12011;47.422;15.018;2024-01-10T12:10:09;6.10;46.50
23669;DHT22;12011;47.422;15.018;2024-01-10T12:12:39;6.50;45.40
23669;DHT22;12011;47.422;15.018;2024-01-10T12:15:11;6.60;45.00
23669;DHT22;12011;47.422;15.018;2024-01-10T12:17:41;6.70;44.70
23669;DHT22;12011;47.422;15.018;2024-01-10T12:20:11;7.00;44.60
23669;DHT22;12011;47.422;15.018;2024-01-10T12:22:41;7.20;43.20
23669;DHT22;12011;47.422;15.018;2024-01-10T12:25:11;7.10;44.00
23669;DHT22;12011;47.422;15.018;2024-01-10T12:27:40;7.40;43.80
23669;DHT22;12011;47.422;15.018;2024-01-10T12:30:13;7.70;44.10
23669;DHT22;12011;47.422;15.018;2024-01-10T12:32:42;7.60;42.90
23669;DHT22;12011;47.422;15.018;2024-01-10T12:35:13;7.80;43.10
23669;DHT22;12011;47.422;15.018;2024-01-10T12:37:53;7.70;40.60
23669;DHT22;12011;47.422;15.018;2024-01-10T12:40:23;7.70;41.70
23669;DHT22;12011;47.422;15.018;2024-01-10T12:43:02;7.50;41.70
23669;DHT22;12011;47.422;15.018;2024-01-10T12:45:34;7.40;43.40
23669;DHT22;12011;47.422;15.018;2024-01-10T12:48:05;7.30;42.80
23669;DHT22;12011;47.422;15.018;2024-01-10T12:50:35;7.20;43.80
23669;DHT22;12011;47.422;15.018;2024-01-10T12:53:05;7.10;44.00
23669;DHT22;12011;47.422;15.018;2024-01-10T12:55:34;7.20;43.60
23669;DHT22;12011;47.422;15.018;2024-01-10T12:58:04;7.00;43.00
23669;DHT22;12011;47.422;15.018;2024-01-10T13:00:37;6.80;44.00
23669;DHT22;12011;47.422;15.018;2024-01-10T13:03:06;6.60;44.20
23669;DHT22;12011;47.422;15.018;2024-01-10T13:05:36;6.40;44.60
23669;DHT22;12011;47.422;15.018;2024-01-10T13:08:05;6.20;47.60
23669;DHT22;12011;47.422;15.018;2024-01-10T13:10:35;5.80;46.40
23669;DHT22;12011;47.422;15.018;2024-01-10T13:13:04;5.70;45.40
23669;DHT22;12011;47.422;15.018;2024-01-10T13:15:37;6.00;47.50
23669;DHT22;12011;47.422;15.018;2024-01-10T13:18:07;5.80;46.50
23669;DHT22;12011;47.422;15.018;2024-01-10T13:20:37;5.70;47.50
23669;DHT22;12011;47.422;15.018;2024-01-10T13:23:07;5.50;47.20
23669;DHT22;12011;47.422;15.018;2024-01-10T13:25:37;5.50;48.40
23669;DHT22;12011;47.422;15.018;2024-01-10T13:28:06;5.30;47.40
23669;DHT22;12011;47.422;15.018;2024-01-10T13:30:40;5.10;48.50
23669;DHT22;12011;47.422;15.018;2024-01-10T13:33:10;4.70;50.00
23669;DHT22;12011;47.422;15.018;2024-01-10T13:35:40;4.20;52.00
23669;DHT22;12011;47.422;15.018;2024-01-10T13:38:09;3.80;53.20
23669;DHT22;12011;47.422;15.018;2024-01-10T13:40:39;3.20;55.80
23669;DHT22;12011;47.422;15.018;2024-01-10T13:43:08;2.80;58.90
23669;DHT22;12011;47.422;15.018;2024-01-10T13:45:40;2.50;62.20
23669;DHT22;12011;47.422;15.018;2024-01-10T13:48:10;2.40;63.60
23669;DHT22;12011;47.422;15.018;2024-01-10T13:50:39;2.20;63.30
23669;DHT22;12011;47.422;15.018;2024-01-10T13:53:09;2.10;65.00
23669;DHT22;12011;47.422;15.018;2024-01-10T13:55:39;2.10;68.00
23669;DHT22;12011;47.422;15.018;2024-01-10T13:58:08;2.00;70.40
23669;DHT22;12011;47.422;15.018;2024-01-10T14:00:40;2.00;68.20
23669;DHT22;12011;47.422;15.018;2024-01-10T14:03:10;1.80;72.40
23669;DHT22;12011;47.422;15.018;2024-01-10T14:05:40;1.90;72.00
23669;DHT22;12011;47.422;15.018;2024-01-10T14:08:10;1.90;77.70
23669;DHT22;12011;47.422;15.018;2024-01-10T14:10:40;2.00;75.70
23669;DHT22;12011;47.422;15.018;2024-01-10T14:13:09;1.90;74.70
23669;DHT22;12011;47.422;15.018;2024-01-10T14:15:41;2.00;75.60
23669;DHT22;12011;47.422;15.018;2024-01-10T14:18:11;1.80;68.00
23669;DHT22;12011;47.422;15.018;2024-01-10T14:20:40;1.80;71.20
23669;DHT22;12011;47.422;15.018;2024-01-10T14:23:10;1.70;74.50
23669;DHT22;12011;47.422;15.018;2024-01-10T14:25:40;1.80;70.50
23669;DHT22;12011;47.422;15.018;2024-01-10T14:28:09;1.60;71.90
23669;DHT22;12011;47.422;15.018;2024-01-10T14:30:41;1.80;77.90
23669;DHT22;12011;47.422;15.018;2024-01-10T14:33:11;1.80;74.80
23669;DHT22;12011;47.422;15.018;2024-01-10T14:35:41;1.80;74.00
23669;DHT22;12011;47.422;15.018;2024-01-10T14:38:10;1.60;78.00
23669;DHT22;12011;47.422;15.018;2024-01-10T14:40:40;1.70;74.70
23669;DHT22;12011;47.422;15.018;2024-01-10T14:43:09;1.40;73.40
23669;DHT22;12011;47.422;15.018;2024-01-10T14:45:41;1.30;74.10
23669;DHT22;12011;47.422;15.018;2024-01-10T14:48:11;1.10;75.80
23669;DHT22;12011;47.422;15.018;2024-01-10T14:50:40;1.30;77.90
23669;DHT22;12011;47.422;15.018;2024-01-10T14:53:10;1.00;81.00
23669;DHT22;12011;47.422;15.018;2024-01-10T14:55:39;1.10;80.90
23669;DHT22;12011;47.422;15.018;2024-01-10T14:58:09;0.70;81.10
23669;DHT22;12011;47.422;15.018;2024-01-10T15:00:41;1.00;85.90
23669;DHT22;12011;47.422;15.018;2024-01-10T15:03:11;0.50;80.90
23669;DHT22;12011;47.422;15.018;2024-01-10T15:05:41;0.30;81.50
23669;DHT22;12011;47.422;15.018;2024-01-10T15:08:10;0.10;82.00
23669;DHT22;12011;47.422;15.018;2024-01-10T15:10:40;0.40;83.50
23669;DHT22;12011;47.422;15.018;2024-01-10T15:13:10;0.00;82.70
23669;DHT22;12011;47.422;15.018;2024-01-10T15:15:43;0.10;84.50
23669;DHT22;12011;47.422;15.018;2024-01-10T15:18:13;-0.10;90.50
23669;DHT22;12011;47.422;15.018;2024-01-10T15:20:42;-0.20;90.30
23669;DHT22;12011;47.422;15.018;2024-01-10T15:23:12;-0.90;92.30
23669;DHT22;12011;47.422;15.018;2024-01-10T15:25:41;-0.30;92.00
23669;DHT22;12011;47.422;15.018;2024-01-10T15:28:11;-0.20;91.20
23669;DHT22;12011;47.422;15.018;2024-01-10T15:30:43;-0.70;92.20
23669;DHT22;12011;47.422;15.018;2024-01-10T15:33:12;-0.70;91.50
23669;DHT22;12011;47.422;15.018;2024-01-10T15:35:42;-1.10;93.30
23669;DHT22;12011;47.422;15.018;2024-01-10T15:38:12;-1.10;92.30
23669;DHT22;12011;47.422;15.018;2024-01-10T15:40:42;-1.10;93.50
23669;DHT22;12011;47.422;15.018;2024-01-10T15:43:11;0.00;93.30
23669;DHT22;12011;47.422;15.018;2024-01-10T15:45:43;-0.80;93.10
23669;DHT22;12011;47.422;15.018;2024-01-10T15:48:13;-1.10;93.20
23669;DHT22;12011;47.422;15.018;2024-01-10T15:50:42;-0.80;94.90
23669;DHT22;12011;47.422;15.018;2024-01-10T15:53:12;-0.80;94.40
23669;DHT22;12011;47.422;15.018;2024-01-10T15:55:42;-0.70;95.50
23669;DHT22;12011;47.422;15.018;2024-01-10T15:58:12;-1.00;96.40
23669;DHT22;12011;47.422;15.018;2024-01-10T16:00:44;-0.70;95.10
23669;DHT22;12011;47.422;15.018;2024-01-10T16:03:13;-1.00;97.80
23669;DHT22;12011;47.422;15.018;2024-01-10T16:05:43;-2.00;96.00
23669;DHT22;12011;47.422;15.018;2024-01-10T16:08:14;-0.90;97.50
23669;DHT22;12011;47.422;15.018;2024-01-10T16:10:44;-1.30;97.00
23669;DHT22;12011;47.422;15.018;2024-01-10T16:13:13;-1.10;98.90
23669;DHT22;12011;47.422;15.018;2024-01-10T16:15:46;-2.10;97.10
23669;DHT22;12011;47.422;15.018;2024-01-10T16:18:15;-2.40;97.70
23669;DHT22;12011;47.422;15.018;2024-01-10T16:20:45;-2.30;98.20
23669;DHT22;12011;47.422;15.018;2024-01-10T16:23:14;-1.70;99.00
23669;DHT22;12011;47.422;15.018;2024-01-10T16:25:44;-1.40;99.90
23669;DHT22;12011;47.422;15.018;2024-01-10T16:28:15;-2.40;99.90
23669;DHT22;12011;47.422;15.018;2024-01-10T16:30:48;-2.60;98.90
23669;DHT22;12011;47.422;15.018;2024-01-10T16:33:18;-2.60;99.90
23669;DHT22;12011;47.422;15.018;2024-01-10T16:35:49;-2.70;99.90
23669;DHT22;12011;47.422;15.018;2024-01-10T16:38:18;-2.40;99.90
23669;DHT22;12011;47.422;15.018;2024-01-10T16:40:48;-2.90;99.90
23669;DHT22;12011;47.422;15.018;2024-01-10T16:43:17;-2.20;99.90
23669;DHT22;12011;47.422;15.018;2024-01-10T16:45:51;-3.10;99.90
23669;DHT22;12011;47.422;15.018;2024-01-10T16:48:20;-2.60;99.90
23669;DHT22;12011;47.422;15.018;2024-01-10T16:50:51;-3.20;99.90
23669;DHT22;12011;47.422;15.018;2024-01-10T16:53:25;-3.20;99.90
23669;DHT22;12011;47.422;15.018;2024-01-10T16:55:56;-3.20;99.90
23669;DHT22;12011;47.422;15.018;2024-01-10T16:59:00;-2.80;99.90
23669;DHT22;12011;47.422;15.018;2024-01-10T17:01:45;-3.40;99.90
23669;DHT22;12011;47.422;15.018;2024-01-10T17:04:18;-3.40;99.90
23669;DHT22;12011;47.422;15.018;2024-01-10T17:06:51;-3.50;99.90
23669;DHT22;12011;47.422;15.018;2024-01-10T17:09:22;-2.70;99.90
23669;DHT22;12011;47.422;15.018;2024-01-10T17:11:57;-3.20;99.90
23669;DHT22;12011;47.422;15.018;2024-01-10T17:14:29;-3.60;99.90
23669;DHT22;12011;47.422;15.018;2024-01-10T17:17:02;-3.70;99.90
23669;DHT22;12011;47.422;15.018;2024-01-10T17:19:34;-3.70;99.90